Time;durP1;ratioP1;P1;durP2;ratioP2;P2;SDS_P1;SDS_P2;PMS_P1;PMS_P2;Temp;Humidity;BMP_temperature;BMP_pressure;BME280_temperature;BME280_humidity;BME280_pressure;Samples;Min_cycle;Max_cycle;Signal;HPM_P1;HPM_P2
2020/01/04 00:01:20;;;;;;;10.6;7.5;;;;;;;8.03;76.55176;969.9661;;;;
2020/01/04 00:03:45;;;;;;;11.1;7.6;;;;;;;8.07;76.55957;970.034;;;;
2020/01/04 00:06:10;;;;;;;10;7.4;;;;;;;8.1;76.56445;970.0334;;;;
2020/01/04 00:08:36;;;;;;;11.4;7.7;;;;;;;8.07;76.85059;970.0203;;;;
2020/01/04 00:11:01;;;;;;;10.9;8.1;;;;;;;8.03;77.42578;969.9425;;;;
2020/01/04 00:13:26;;;;;;;10.9;7.8;;;;;;;8.06;77.58203;969.9835;;;;
2020/01/04 00:15:52;;;;;;;12.3;8.2;;;;;;;8.01;78.12109;969.9902;;;;
2020/01/04 00:18:17;;;;;;;11.2;8;;;;;;;8.02;78.23926;969.9731;;;;
2020/01/04 00:20:42;;;;;;;11.3;8.3;;;;;;;8.02;78.33398;969.9048;;;;
2020/01/04 00:23:07;;;;;;;11.7;8.2;;;;;;;8.05;78.32617;970.0236;;;;
2020/01/04 00:25:32;;;;;;;11.2;8.2;;;;;;;8.01;78.65527;970.0111;;;;
2020/01/04 00:27:57;;;;;;;12.1;8.3;;;;;;;7.97;79.03516;969.9822;;;;
2020/01/04 00:32:47;;;;;;;12.5;8.9;;;;;;;7.95;79.40332;969.9785;;;;
2020/01/04 00:35:12;;;;;;;12.1;9.4;;;;;;;7.88;79.9043;969.9508;;;;
2020/01/04 00:37:38;;;;;;;13.3;9.6;;;;;;;7.86;80.20215;970.1517;;;;
2020/01/04 00:40:03;;;;;;;14.9;9.7;;;;;;;7.82;80.67188;970.0919;;;;
2020/01/04 00:42:28;;;;;;;14.7;9.8;;;;;;;7.92;80.49316;970.2196;;;;
2020/01/04 00:44:53;;;;;;;13.1;9.7;;;;;;;7.9;80.69824;970.1386;;;;
2020/01/04 00:47:18;;;;;;;13.5;9.8;;;;;;;7.9;80.38379;970.1434;;;;
2020/01/04 00:49:43;;;;;;;14.1;10;;;;;;;7.85;80.7002;970.1451;;;;
2020/01/04 00:53:37;;;;;;;14.2;9.9;;;;;;;7.83;80.91797;970.0567;;;;
2020/01/04 00:56:02;;;;;;;14.4;9.8;;;;;;;7.82;81.28906;970.0837;;;;
2020/01/04 00:58:27;;;;;;;14.2;10.5;;;;;;;7.78;81.85254;970.0478;;;;
2020/01/04 01:00:52;;;;;;;14.2;10.6;;;;;;;7.75;82.40625;970.0761;;;;
2020/01/04 01:03:17;;;;;;;14.4;10.7;;;;;;;7.76;82.46484;969.9959;;;;
2020/01/04 01:05:42;;;;;;;14.2;10.3;;;;;;;7.74;82.61426;970.0634;;;;
2020/01/04 01:08:07;;;;;;;13.5;10.1;;;;;;;7.76;82.46484;970.1747;;;;
2020/01/04 01:10:33;;;;;;;13.8;10.3;;;;;;;7.73;82.78613;970.1291;;;;
2020/01/04 01:12:58;;;;;;;14.3;10.1;;;;;;;7.68;82.85742;970.1635;;;;
2020/01/04 01:15:23;;;;;;;15.1;10.1;;;;;;;7.7;82.83887;970.2369;;;;
2020/01/04 01:17:48;;;;;;;15.6;10.7;;;;;;;7.79;82.65625;970.1978;;;;
2020/01/04 01:20:13;;;;;;;17.5;10.4;;;;;;;7.74;82.91602;970.1805;;;;
2020/01/04 01:22:38;;;;;;;15.3;10.8;;;;;;;7.73;82.89258;970.2391;;;;
2020/01/04 01:25:03;;;;;;;16.4;10.4;;;;;;;7.7;82.79199;970.1943;;;;
2020/01/04 01:27:28;;;;;;;15.1;10.7;;;;;;;7.74;82.60254;970.2723;;;;
2020/01/04 01:29:53;;;;;;;14.4;10;;;;;;;7.74;82.41504;970.2867;;;;
2020/01/04 01:32:18;;;;;;;15.2;10.9;;;;;;;7.79;82.30859;970.2511;;;;
2020/01/04 01:34:43;;;;;;;13.6;10.3;;;;;;;7.83;82.18848;970.2299;;;;
2020/01/04 01:37:08;;;;;;;13.6;10.3;;;;;;;7.78;82.01563;970.2211;;;;
2020/01/04 01:39:33;;;;;;;13.3;9.6;;;;;;;7.76;82.25488;970.2274;;;;
2020/01/04 01:41:58;;;;;;;13.9;10.4;;;;;;;7.81;82.14941;970.2244;;;;
2020/01/04 01:44:24;;;;;;;16;10.7;;;;;;;7.73;82.43848;970.1727;;;;
2020/01/04 01:46:55;;;;;;;15.7;10;;;;;;;7.7;82.75586;970.2357;;;;
2020/01/04 01:49:18;;;;;;;15.2;10.3;;;;;;;7.74;82.53125;970.2858;;;;
2020/01/04 01:51:39;;;;;;;15.3;10.5;;;;;;;7.7;82.83887;970.2514;;;;
2020/01/04 01:54:05;;;;;;;13.8;10;;;;;;;7.74;82.34473;970.2819;;;;
2020/01/04 01:56:29;;;;;;;16;10;;;;;;;7.72;82.55176;970.3262;;;;
2020/01/04 01:58:54;;;;;;;16.1;10.5;;;;;;;7.68;82.56738;970.3019;;;;
2020/01/04 02:01:19;;;;;;;14.8;10.2;;;;;;;7.75;82.20898;970.3558;;;;
2020/01/04 02:03:45;;;;;;;16.2;10.3;;;;;;;7.72;82.31836;970.4111;;;;
2020/01/04 02:06:10;;;;;;;13.9;10;;;;;;;7.65;82.5625;970.2748;;;;
2020/01/04 02:08:35;;;;;;;13.6;10.2;;;;;;;7.65;82.87402;970.3164;;;;
2020/01/04 02:11:00;;;;;;;12.1;10.1;;;;;;;7.72;82.46973;970.2599;;;;
2020/01/04 02:13:25;;;;;;;14;10.5;;;;;;;7.69;82.55762;970.2465;;;;
2020/01/04 02:15:50;;;;;;;15.5;10.5;;;;;;;7.7;82.82715;970.2397;;;;
2020/01/04 02:18:15;;;;;;;14.1;10.1;;;;;;;7.72;82.35352;970.3236;;;;
2020/01/04 02:20:40;;;;;;;15.1;10.9;;;;;;;7.69;82.5;970.3372;;;;
2020/01/04 02:23:05;;;;;;;13.8;10.1;;;;;;;7.75;82.29004;970.3475;;;;
2020/01/04 02:25:31;;;;;;;14.9;10.5;;;;;;;7.72;82.43457;970.3911;;;;
2020/01/04 02:27:56;;;;;;;15.2;10.7;;;;;;;7.68;82.41504;970.3976;;;;
2020/01/04 02:30:21;;;;;;;14.4;11.1;;;;;;;7.68;82.71777;970.3605;;;;
2020/01/04 02:32:46;;;;;;;13.9;10.4;;;;;;;7.69;82.61621;970.3875;;;;
2020/01/04 02:35:11;;;;;;;14.6;10.6;;;;;;;7.68;82.72949;970.3814;;;;
2020/01/04 02:37:36;;;;;;;13.1;10.2;;;;;;;7.56;82.91699;970.4048;;;;
2020/01/04 02:40:02;;;;;;;15.5;11;;;;;;;7.69;82.8252;970.44;;;;
2020/01/04 02:42:27;;;;;;;13.1;10.5;;;;;;;7.62;82.81055;970.4724;;;;
2020/01/04 02:44:52;;;;;;;15.4;10.3;;;;;;;7.68;82.83398;970.3967;;;;
2020/01/04 02:47:30;;;;;;;15.7;10.4;;;;;;;7.66;82.69043;970.4885;;;;
2020/01/04 02:49:42;;;;;;;15.4;10.9;;;;;;;7.75;82.41797;970.4585;;;;
2020/01/04 02:52:08;;;;;;;15.2;10.6;;;;;;;7.79;82.16699;970.4731;;;;
2020/01/04 02:54:33;;;;;;;14.1;10;;;;;;;7.73;82.43652;970.415;;;;
2020/01/04 02:56:58;;;;;;;14.6;10.7;;;;;;;7.75;82.40625;970.3653;;;;
2020/01/04 02:59:23;;;;;;;15.8;10.6;;;;;;;7.81;82.27734;970.351;;;;
2020/01/04 03:01:48;;;;;;;14.8;10.6;;;;;;;7.75;82.05762;970.3304;;;;
2020/01/04 03:04:13;;;;;;;13.2;10.2;;;;;;;7.78;82.09766;970.3275;;;;
2020/01/04 03:06:39;;;;;;;14;10;;;;;;;7.72;82.12012;970.3602;;;;
2020/01/04 03:09:04;;;;;;;16.9;11.1;;;;;;;7.69;82.41797;970.3462;;;;
2020/01/04 03:11:30;;;;;;;14.7;10.8;;;;;;;7.66;82.58594;970.3614;;;;
2020/01/04 03:13:55;;;;;;;17.3;11.4;;;;;;;7.68;82.92676;970.4064;;;;
2020/01/04 03:16:19;;;;;;;16.5;11.5;;;;;;;7.58;83.69824;970.4207;;;;
2020/01/04 03:18:44;;;;;;;17;12.2;;;;;;;7.6;83.78613;970.3831;;;;
2020/01/04 03:21:10;;;;;;;15.9;11.4;;;;;;;7.57;83.68652;970.2597;;;;
2020/01/04 03:23:35;;;;;;;18.8;11.5;;;;;;;7.69;83.62891;970.3358;;;;
2020/01/04 03:26:00;;;;;;;17.2;12.1;;;;;;;7.53;84.2832;970.3067;;;;
2020/01/04 03:28:25;;;;;;;16.2;11.2;;;;;;;7.59;83.72461;970.3571;;;;
2020/01/04 03:30:50;;;;;;;14.4;11;;;;;;;7.55;83.66016;970.37;;;;
2020/01/04 03:33:16;;;;;;;15.4;11.5;;;;;;;7.63;83.55859;970.3907;;;;
2020/01/04 03:35:41;;;;;;;14.6;11.3;;;;;;;7.53;84.03906;970.2961;;;;
2020/01/04 03:38:06;;;;;;;17.2;12;;;;;;;7.49;84.36914;970.2776;;;;
2020/01/04 03:40:31;;;;;;;14.8;11.4;;;;;;;7.44;84.58008;970.3488;;;;
2020/01/04 03:42:57;;;;;;;18;12.3;;;;;;;7.42;84.69336;970.2975;;;;
2020/01/04 03:45:22;;;;;;;17.5;11.5;;;;;;;7.47;84.45898;970.277;;;;
2020/01/04 03:47:47;;;;;;;14.5;10.7;;;;;;;7.57;83.81445;970.2289;;;;
2020/01/04 03:50:12;;;;;;;16.8;11.9;;;;;;;7.56;83.88281;970.1288;;;;
2020/01/04 03:52:37;;;;;;;15.4;11.6;;;;;;;7.5;83.89355;970.1841;;;;
2020/01/04 03:55:02;;;;;;;15.8;11.2;;;;;;;7.56;83.63867;970.1831;;;;
2020/01/04 03:57:28;;;;;;;14.3;10.1;;;;;;;7.62;83.4043;970.2335;;;;
2020/01/04 03:59:53;;;;;;;12.8;10.5;;;;;;;7.58;83.87402;970.274;;;;
2020/01/04 04:02:26;;;;;;;15.2;10.6;;;;;;;7.58;83.87598;970.4197;;;;
2020/01/04 04:04:51;;;;;;;15.4;10.3;;;;;;;7.63;84.07129;970.2813;;;;
2020/01/04 04:07:16;;;;;;;14.7;10.8;;;;;;;7.66;84.27441;970.3135;;;;
2020/01/04 04:09:41;;;;;;;14.6;10.9;;;;;;;7.68;84.33789;970.3917;;;;
2020/01/04 04:12:06;;;;;;;15.3;11.2;;;;;;;7.71;84.22656;970.4447;;;;
2020/01/04 04:14:31;;;;;;;16.1;10.9;;;;;;;7.68;84.52344;970.4444;;;;
2020/01/04 04:16:56;;;;;;;14.4;10.2;;;;;;;7.62;84.85938;970.4586;;;;
2020/01/04 04:19:21;;;;;;;15.1;10.5;;;;;;;7.6;85.03223;970.4397;;;;
2020/01/04 04:21:46;;;;;;;16.1;11;;;;;;;7.52;85.52637;970.3636;;;;
2020/01/04 04:24:12;;;;;;;16.3;10.8;;;;;;;7.46;85.47949;970.351;;;;
2020/01/04 04:26:37;;;;;;;15;10.5;;;;;;;7.45;85.76855;970.4275;;;;
2020/01/04 04:29:02;;;;;;;15.1;10.8;;;;;;;7.47;85.84375;970.409;;;;
2020/01/04 04:31:27;;;;;;;15.1;11.1;;;;;;;7.47;85.84375;970.4938;;;;
2020/01/04 04:33:52;;;;;;;16.7;11.7;;;;;;;7.5;85.84863;970.5201;;;;
2020/01/04 04:36:19;;;;;;;17.6;11.7;;;;;;;7.57;85.69824;970.5918;;;;
2020/01/04 04:41:07;;;;;;;16.9;11.8;;;;;;;7.56;85.47754;970.617;;;;
2020/01/04 04:43:32;;;;;;;16.8;12.1;;;;;;;7.59;85.26172;970.7759;;;;
2020/01/04 04:45:57;;;;;;;17.4;12.4;;;;;;;7.53;85.64453;970.7878;;;;
2020/01/04 04:48:22;;;;;;;18.3;12.7;;;;;;;7.49;85.74219;970.8031;;;;
2020/01/04 04:50:48;;;;;;;16.8;12.5;;;;;;;7.6;85.45117;970.7928;;;;
2020/01/04 04:53:13;;;;;;;18.3;12.9;;;;;;;7.58;85.48047;970.7477;;;;
2020/01/04 04:55:38;;;;;;;21.3;13.7;;;;;;;7.62;85.34766;970.7767;;;;
2020/01/04 04:58:03;;;;;;;19.1;13.2;;;;;;;7.57;85.46777;970.7899;;;;
2020/01/04 05:00:28;;;;;;;17.1;12.8;;;;;;;7.59;85.68066;970.8583;;;;
2020/01/04 05:02:53;;;;;;;21.2;14.1;;;;;;;7.58;85.64551;970.8349;;;;
2020/01/04 05:05:19;;;;;;;19.3;14.2;;;;;;;7.55;85.90625;970.8359;;;;
2020/01/04 05:07:44;;;;;;;18.7;13.9;;;;;;;7.51;86.01367;970.7433;;;;
2020/01/04 05:10:09;;;;;;;17;13.1;;;;;;;7.4;86.25977;970.7505;;;;
2020/01/04 05:12:34;;;;;;;19.3;13.7;;;;;;;7.46;86.21289;970.7759;;;;
2020/01/04 05:14:59;;;;;;;19.3;13.5;;;;;;;7.36;86.43945;970.7695;;;;
2020/01/04 05:17:24;;;;;;;18.4;13.6;;;;;;;7.36;86.47266;970.8021;;;;
2020/01/04 05:19:50;;;;;;;17.4;13.1;;;;;;;7.45;86.37402;970.875;;;;
2020/01/04 05:22:15;;;;;;;19.5;13.6;;;;;;;7.41;86.33301;970.9623;;;;
2020/01/04 05:24:40;;;;;;;20.7;14.4;;;;;;;7.36;86.68359;971.0156;;;;
2020/01/04 05:27:05;;;;;;;18;13.5;;;;;;;7.44;86.26758;971.0632;;;;
2020/01/04 05:29:30;;;;;;;17.6;13.3;;;;;;;7.38;86.34766;971.0933;;;;
2020/01/04 05:33:01;;;;;;;18.8;13.3;;;;;;;7.41;86.0293;971.1697;;;;
2020/01/04 05:34:21;;;;;;;18.6;13.9;;;;;;;7.43;85.95117;971.1584;;;;
2020/01/04 05:36:46;;;;;;;18.7;13.2;;;;;;;7.44;85.90625;971.1696;;;;
2020/01/04 05:39:11;;;;;;;19.6;13.2;;;;;;;7.49;85.48633;971.1672;;;;
2020/01/04 05:41:36;;;;;;;18.7;13.6;;;;;;;7.44;85.6875;971.1708;;;;
2020/01/04 05:44:01;;;;;;;19.1;13.1;;;;;;;7.4;85.78125;971.2059;;;;
2020/01/04 05:46:26;;;;;;;18.8;13.7;;;;;;;7.43;85.73242;971.2628;;;;
2020/01/04 05:48:51;;;;;;;18.2;13.5;;;;;;;7.49;85.46484;971.3364;;;;
2020/01/04 05:51:16;;;;;;;19.1;13.8;;;;;;;7.38;85.89453;971.3621;;;;
2020/01/04 05:53:41;;;;;;;17.5;12.9;;;;;;;7.46;85.82813;971.3582;;;;
2020/01/04 05:56:06;;;;;;;19.9;14.2;;;;;;;7.37;86.36914;971.4391;;;;
2020/01/04 05:58:32;;;;;;;17.3;12.9;;;;;;;7.43;86.2168;971.5472;;;;
2020/01/04 06:00:57;;;;;;;16.2;12.5;;;;;;;7.47;86.22754;971.6573;;;;
2020/01/04 06:03:22;;;;;;;16;10.4;;;;;;;7.37;85.14746;971.6805;;;;
2020/01/04 06:05:47;;;;;;;7.4;4.9;;;;;;;7.11;83.22559;971.611;;;;
2020/01/04 06:08:12;;;;;;;6.6;4;;;;;;;6.9;83.20801;971.7631;;;;
2020/01/04 06:10:37;;;;;;;6.7;3.7;;;;;;;6.64;83.75;971.918;;;;
2020/01/04 06:13:02;;;;;;;6.5;4.2;;;;;;;6.52;83.37793;971.8365;;;;
2020/01/04 06:15:28;;;;;;;7.3;4.1;;;;;;;6.48;83.52246;971.8428;;;;
2020/01/04 06:17:53;;;;;;;6.3;4.2;;;;;;;6.45;83.79395;971.853;;;;
2020/01/04 06:20:18;;;;;;;6.4;4.1;;;;;;;6.52;83.28516;971.8738;;;;
2020/01/04 06:22:43;;;;;;;6.2;4.3;;;;;;;6.47;83.06738;971.9102;;;;
2020/01/04 06:25:19;;;;;;;7.6;4.4;;;;;;;6.4;82.1582;971.9677;;;;
2020/01/04 06:27:44;;;;;;;7.6;4.2;;;;;;;6.39;82.60938;971.9697;;;;
2020/01/04 06:30:09;;;;;;;8.3;4.3;;;;;;;6.47;82.35645;971.9969;;;;
2020/01/04 06:32:34;;;;;;;8.1;4.2;;;;;;;6.34;82.2627;972.0581;;;;
2020/01/04 06:34:59;;;;;;;9.3;4.6;;;;;;;6.27;82.09863;971.9595;;;;
2020/01/04 06:37:24;;;;;;;9.5;4.2;;;;;;;6.12;82.70898;972.0223;;;;
2020/01/04 06:39:49;;;;;;;11.6;4.8;;;;;;;6.14;82.67578;971.9412;;;;
2020/01/04 06:42:14;;;;;;;8.5;4.4;;;;;;;6.2;82.48145;972.0245;;;;
2020/01/04 06:44:40;;;;;;;9.6;4.6;;;;;;;6.24;81.9541;972.0901;;;;
2020/01/04 06:47:05;;;;;;;9.1;4.5;;;;;;;6.15;81.66992;972.1501;;;;
2020/01/04 06:49:30;;;;;;;11.6;4.5;;;;;;;6.07;82.16602;972.1156;;;;
2020/01/04 06:51:55;;;;;;;9.3;4.4;;;;;;;6.02;81.72656;972.0806;;;;
2020/01/04 06:56:15;;;;;;;9.5;4.3;;;;;;;6;81.6748;972.092;;;;
2020/01/04 06:58:41;;;;;;;10.2;4.1;;;;;;;5.95;80.24023;972.0984;;;;
2020/01/04 07:01:06;;;;;;;11.7;4.3;;;;;;;5.9;80.05664;972.1443;;;;
2020/01/04 07:03:31;;;;;;;11.7;4.2;;;;;;;5.93;79.47168;972.1967;;;;
2020/01/04 07:05:56;;;;;;;10.2;4.2;;;;;;;5.96;79.69727;972.2324;;;;
2020/01/04 07:08:21;;;;;;;14.2;4.2;;;;;;;6.05;79.14453;972.2453;;;;
2020/01/04 07:10:46;;;;;;;11.7;4.3;;;;;;;5.98;79.7002;972.2509;;;;
2020/01/04 07:13:11;;;;;;;11.5;4;;;;;;;6.09;78.6084;972.2374;;;;
2020/01/04 07:15:36;;;;;;;9.4;4.1;;;;;;;6.15;77.78418;972.2324;;;;
2020/01/04 07:18:01;;;;;;;14.2;4.5;;;;;;;6.14;78.97559;972.3184;;;;
2020/01/04 07:20:26;;;;;;;11.1;4.2;;;;;;;6.03;78.83984;972.4584;;;;
2020/01/04 07:22:51;;;;;;;11.9;4.6;;;;;;;6.01;79.17285;972.4041;;;;
2020/01/04 07:25:16;;;;;;;11.2;4.2;;;;;;;5.94;78.88184;972.3981;;;;
2020/01/04 07:27:42;;;;;;;12.3;4.4;;;;;;;5.9;80.02148;972.4302;;;;
2020/01/04 07:30:07;;;;;;;13.1;4.7;;;;;;;5.96;79.39551;972.4283;;;;
2020/01/04 07:32:32;;;;;;;12.9;4.9;;;;;;;6.05;79.80566;972.4392;;;;
2020/01/04 07:34:57;;;;;;;15.1;4.9;;;;;;;6.01;79.32422;972.4565;;;;
2020/01/04 07:37:22;;;;;;;12.8;4.7;;;;;;;6.06;79.28613;972.4422;;;;
2020/01/04 07:39:47;;;;;;;13.1;4.7;;;;;;;6.22;81.19629;972.3899;;;;
2020/01/04 07:42:12;;;;;;;10.2;4.4;;;;;;;6.45;79.57813;972.4309;;;;
2020/01/04 07:44:37;;;;;;;13.7;4.9;;;;;;;6.31;78.69434;972.496;;;;
2020/01/04 07:47:02;;;;;;;11.4;4.9;;;;;;;6.26;78.8125;972.5416;;;;
2020/01/04 07:49:27;;;;;;;10.7;4.7;;;;;;;6.16;78.23633;972.5496;;;;
2020/01/04 07:51:52;;;;;;;12.7;4.8;;;;;;;6.14;77.97852;972.5486;;;;
2020/01/04 07:54:18;;;;;;;12.7;4.6;;;;;;;6.07;78.32617;972.647;;;;
2020/01/04 07:56:43;;;;;;;11.4;4.5;;;;;;;6.12;78.60156;972.6836;;;;
2020/01/04 07:59:08;;;;;;;15.4;4.6;;;;;;;6.12;78.6377;972.7065;;;;
2020/01/04 08:01:35;;;;;;;12.8;4.5;;;;;;;6.02;79.08008;972.6211;;;;
2020/01/04 08:03:58;;;;;;;13.8;5;;;;;;;6.09;78.87305;972.7004;;;;
2020/01/04 08:06:23;;;;;;;13.6;4.8;;;;;;;5.99;79.1582;972.7747;;;;
2020/01/04 08:08:48;;;;;;;14.2;4.8;;;;;;;6.05;79.19141;972.7977;;;;
2020/01/04 08:11:13;;;;;;;14;5.1;;;;;;;6.04;79.21484;972.8254;;;;
2020/01/04 08:13:38;;;;;;;14.4;5.3;;;;;;;6.03;79.22266;972.8535;;;;
2020/01/04 08:16:03;;;;;;;12.2;4.8;;;;;;;5.98;79.94531;972.8476;;;;
2020/01/04 08:18:28;;;;;;;13.6;5.6;;;;;;;5.98;79.88574;972.8298;;;;
2020/01/04 08:20:54;;;;;;;13;6.1;;;;;;;6.05;80.24707;972.788;;;;
2020/01/04 08:23:19;;;;;;;11.4;4.9;;;;;;;6.02;79.94043;972.7567;;;;
2020/01/04 08:25:44;;;;;;;13.8;5.4;;;;;;;6;80.41113;972.7939;;;;
2020/01/04 08:28:09;;;;;;;12.5;5.1;;;;;;;5.93;80.59473;972.8568;;;;
2020/01/04 08:30:34;;;;;;;14.3;5;;;;;;;5.96;79.97559;972.8589;;;;
2020/01/04 08:32:59;;;;;;;15.9;6.5;;;;;;;5.99;80.53809;972.8586;;;;
2020/01/04 08:35:24;;;;;;;14.4;5.9;;;;;;;5.96;80.50879;972.8775;;;;
2020/01/04 08:37:50;;;;;;;15.2;5.9;;;;;;;5.95;80.49707;972.8147;;;;
2020/01/04 08:40:15;;;;;;;13.2;6.3;;;;;;;5.92;80.9873;972.8409;;;;
2020/01/04 08:42:40;;;;;;;15.4;6.7;;;;;;;6.02;80.85449;972.8571;;;;
2020/01/04 08:45:05;;;;;;;13.7;6.4;;;;;;;6.09;80.47363;972.8798;;;;
2020/01/04 08:47:30;;;;;;;13.6;6.4;;;;;;;6.11;80.33789;972.8082;;;;
2020/01/04 08:49:55;;;;;;;13.7;6.4;;;;;;;6.26;79.88184;972.7684;;;;
2020/01/04 08:52:20;;;;;;;15.6;6.4;;;;;;;6.36;80.03809;972.8403;;;;
2020/01/04 08:54:46;;;;;;;9.5;5.5;;;;;;;6.58;78.07129;972.9112;;;;
2020/01/04 08:57:11;;;;;;;13.9;6.5;;;;;;;6.41;79.57129;972.9777;;;;
2020/01/04 08:59:36;;;;;;;11.7;6.1;;;;;;;6.24;79.84082;973.0244;;;;
2020/01/04 09:02:01;;;;;;;10.1;5.8;;;;;;;6.27;80.09082;973.0536;;;;
2020/01/04 09:04:26;;;;;;;13.2;6.5;;;;;;;6.26;79.98438;973.0958;;;;
2020/01/04 09:06:51;;;;;;;13;6.2;;;;;;;6.25;80.55176;973.1186;;;;
2020/01/04 09:09:16;;;;;;;13.8;6.5;;;;;;;6.24;80.77051;973.2488;;;;
2020/01/04 09:11:41;;;;;;;11.1;6.1;;;;;;;6.27;80.83496;973.3399;;;;
2020/01/04 09:14:06;;;;;;;12.7;6.3;;;;;;;6.32;80.55371;973.3942;;;;
2020/01/04 09:16:31;;;;;;;10.5;6;;;;;;;6.22;80.76758;973.4484;;;;
2020/01/04 09:18:56;;;;;;;11.7;6.3;;;;;;;6.14;81.14453;973.5415;;;;
2020/01/04 09:21:21;;;;;;;10.8;6.5;;;;;;;6.19;81.7832;973.5735;;;;
2020/01/04 09:23:46;;;;;;;9.5;6;;;;;;;6.26;81.06543;973.6015;;;;
2020/01/04 09:26:12;;;;;;;11.4;6.5;;;;;;;6.27;80.6709;973.5852;;;;
2020/01/04 09:28:37;;;;;;;10.3;6.3;;;;;;;6.37;80.81836;973.5432;;;;
2020/01/04 09:31:02;;;;;;;11.4;7.2;;;;;;;6.44;79.78711;973.5981;;;;
2020/01/04 09:33:27;;;;;;;12.5;7.1;;;;;;;6.52;80.00879;973.5416;;;;
2020/01/04 09:35:52;;;;;;;11.5;7;;;;;;;6.64;80.00879;973.5385;;;;
2020/01/04 09:38:17;;;;;;;9.1;6.3;;;;;;;6.68;79.4248;973.5851;;;;
2020/01/04 09:40:43;;;;;;;12.7;7.2;;;;;;;6.71;79.09277;973.5636;;;;
2020/01/04 09:43:08;;;;;;;10.4;6.4;;;;;;;6.67;78.13184;973.5965;;;;
2020/01/04 09:45:33;;;;;;;10.7;6.3;;;;;;;6.57;79.05566;973.5999;;;;
2020/01/04 09:47:58;;;;;;;9.7;5.9;;;;;;;6.46;77.55957;973.5659;;;;
2020/01/04 09:50:23;;;;;;;10.2;6;;;;;;;6.7;77.29199;973.5176;;;;
2020/01/04 09:52:48;;;;;;;10.3;5.4;;;;;;;6.73;76.55371;973.557;;;;
2020/01/04 09:55:14;;;;;;;10.5;5.7;;;;;;;6.7;76.56055;973.6035;;;;
2020/01/04 09:57:39;;;;;;;11.8;5.7;;;;;;;6.71;76.2832;973.5538;;;;
2020/01/04 10:00:05;;;;;;;11.5;5.9;;;;;;;6.61;75.82324;973.5396;;;;
2020/01/04 10:02:58;;;;;;;11.6;5.5;;;;;;;6.74;76.75293;973.4556;;;;
2020/01/04 10:04:55;;;;;;;11.5;5.9;;;;;;;6.72;76.52734;973.5561;;;;
2020/01/04 10:07:19;;;;;;;11.1;5.6;;;;;;;6.69;75.60645;973.6432;;;;
2020/01/04 10:09:44;;;;;;;13.3;5.9;;;;;;;6.6;76.70313;973.6425;;;;
2020/01/04 10:12:09;;;;;;;10.7;5.7;;;;;;;6.53;76.07617;973.5461;;;;
2020/01/04 10:14:34;;;;;;;13.4;5.8;;;;;;;6.59;75.62109;973.5392;;;;
2020/01/04 10:16:59;;;;;;;15.3;6.7;;;;;;;6.81;75.23047;973.4648;;;;
2020/01/04 10:19:24;;;;;;;15.7;5.5;;;;;;;6.85;73.55273;973.4763;;;;
2020/01/04 10:21:50;;;;;;;16.3;6;;;;;;;6.68;73.51074;973.4409;;;;
2020/01/04 10:24:15;;;;;;;16;5.5;;;;;;;6.84;72.71484;973.3973;;;;
2020/01/04 10:26:40;;;;;;;14.9;5.6;;;;;;;7.01;73.19629;973.4644;;;;
2020/01/04 10:29:05;;;;;;;15.2;5.5;;;;;;;6.89;72.38477;973.4088;;;;
2020/01/04 10:31:30;;;;;;;15.9;5.6;;;;;;;6.81;72.80371;973.4242;;;;
2020/01/04 10:33:55;;;;;;;17.7;5.7;;;;;;;6.98;71.75098;973.4404;;;;
2020/01/04 10:36:20;;;;;;;12.9;5.2;;;;;;;7.21;71.90527;973.405;;;;
2020/01/04 10:38:45;;;;;;;15.6;5.5;;;;;;;7.11;72.44727;973.4819;;;;
2020/01/04 10:41:10;;;;;;;14.6;5.1;;;;;;;7.22;69.33691;973.4019;;;;
2020/01/04 10:43:35;;;;;;;14.8;5.5;;;;;;;7.36;70.47754;973.4456;;;;
2020/01/04 10:46:00;;;;;;;16.3;5.2;;;;;;;7.45;68.26758;973.3727;;;;
2020/01/04 10:48:25;;;;;;;15.7;5.1;;;;;;;7.3;70.12988;973.3107;;;;
2020/01/04 10:50:50;;;;;;;18;5.7;;;;;;;7.2;70.56641;973.287;;;;
2020/01/04 10:53:15;;;;;;;17.2;5.6;;;;;;;7.01;71.34863;973.3706;;;;
2020/01/04 10:55:41;;;;;;;14.1;4.9;;;;;;;6.95;70.06055;973.3764;;;;
2020/01/04 10:58:06;;;;;;;15.2;4.7;;;;;;;6.86;69.91895;973.2786;;;;
2020/01/04 11:00:31;;;;;;;17.6;5.2;;;;;;;6.86;70.8584;973.2787;;;;
2020/01/04 11:02:56;;;;;;;14;5.2;;;;;;;6.98;71.27441;973.3376;;;;
2020/01/04 11:05:21;;;;;;;18.3;5.4;;;;;;;6.92;72.0791;973.2667;;;;
2020/01/04 11:07:46;;;;;;;14.7;4.9;;;;;;;6.87;70.62793;973.2756;;;;
2020/01/04 11:12:36;;;;;;;16.2;4.6;;;;;;;6.73;69.06055;973.1858;;;;
2020/01/04 11:15:01;;;;;;;13.7;4.3;;;;;;;6.63;69.55664;973.0761;;;;
2020/01/04 11:17:26;;;;;;;14.8;4.7;;;;;;;6.41;69.92383;973.0514;;;;
2020/01/04 11:19:51;;;;;;;15.2;4.4;;;;;;;6.44;69.25684;973.0381;;;;
2020/01/04 11:22:16;;;;;;;18.9;4.8;;;;;;;6.41;69.92676;972.9339;;;;
2020/01/04 11:24:41;;;;;;;14.6;4.2;;;;;;;6.5;70.28809;972.9325;;;;
2020/01/04 11:27:07;;;;;;;15.9;4.1;;;;;;;6.45;69.73535;972.8592;;;;
2020/01/04 11:29:32;;;;;;;16.5;4.1;;;;;;;6.47;70.31836;972.8123;;;;
2020/01/04 11:31:57;;;;;;;19.2;4.7;;;;;;;6.47;69.26367;972.7136;;;;
2020/01/04 11:34:22;;;;;;;14.7;4.2;;;;;;;6.44;69.99902;972.7706;;;;
2020/01/04 11:36:47;;;;;;;18.6;4.5;;;;;;;6.48;70.11133;972.834;;;;
2020/01/04 11:39:12;;;;;;;13.8;4.4;;;;;;;6.51;70.43066;972.8505;;;;
2020/01/04 11:41:38;;;;;;;13.6;4.5;;;;;;;6.38;68.41211;972.8519;;;;
2020/01/04 11:44:03;;;;;;;15.9;4.5;;;;;;;6.33;69.91211;972.8397;;;;
2020/01/04 11:46:28;;;;;;;15.9;4.4;;;;;;;6.31;70.45508;972.8798;;;;
2020/01/04 11:48:53;;;;;;;17.8;5;;;;;;;6.22;69.88379;972.7317;;;;
2020/01/04 11:51:18;;;;;;;14.9;4.5;;;;;;;6.18;70.13184;972.6039;;;;
2020/01/04 11:53:43;;;;;;;19.4;4.3;;;;;;;6.23;70.56934;972.6864;;;;
2020/01/04 11:56:08;;;;;;;20.4;4.5;;;;;;;6.21;69.97363;972.7239;;;;
2020/01/04 11:58:34;;;;;;;17.1;4.4;;;;;;;6.33;70.05176;972.6983;;;;
2020/01/04 12:00:59;;;;;;;14.6;4.2;;;;;;;6.24;69.38574;972.6122;;;;
2020/01/04 12:03:24;;;;;;;18.8;4;;;;;;;6.17;69.52832;972.5725;;;;
2020/01/04 12:05:49;;;;;;;19.3;4.4;;;;;;;6.07;69.88281;972.5438;;;;
2020/01/04 12:08:14;;;;;;;16.2;4.3;;;;;;;6.08;69.59375;972.5527;;;;
2020/01/04 12:10:39;;;;;;;17.4;4.6;;;;;;;6.07;70.56543;972.6383;;;;
2020/01/04 12:13:04;;;;;;;18.6;4.7;;;;;;;6.01;70.12793;972.5979;;;;
2020/01/04 12:15:29;;;;;;;16.2;4.3;;;;;;;5.89;70.52344;972.4737;;;;
2020/01/04 12:17:54;;;;;;;13.9;4.3;;;;;;;5.87;70.19727;972.52;;;;
2020/01/04 12:20:20;;;;;;;17.5;4.3;;;;;;;6.09;70.84668;972.5599;;;;
2020/01/04 12:22:45;;;;;;;16.2;4.4;;;;;;;6.01;70.92773;972.5106;;;;
2020/01/04 12:25:10;;;;;;;16;4.4;;;;;;;6.01;69.94238;972.5066;;;;
2020/01/04 12:27:35;;;;;;;17.9;4.3;;;;;;;5.87;69.67578;972.5072;;;;
2020/01/04 12:30:00;;;;;;;17.1;4.3;;;;;;;5.86;69.9873;972.4194;;;;
2020/01/04 12:32:25;;;;;;;16.2;4.1;;;;;;;5.9;69.88867;972.3762;;;;
2020/01/04 12:34:51;;;;;;;16.4;4.3;;;;;;;5.87;70.47363;972.3723;;;;
2020/01/04 12:37:16;;;;;;;17.7;3.8;;;;;;;5.84;69.71582;972.2786;;;;
2020/01/04 12:39:41;;;;;;;16.9;4.1;;;;;;;5.9;70.47949;972.373;;;;
2020/01/04 12:42:06;;;;;;;15.4;4.1;;;;;;;5.89;70.38574;972.5349;;;;
2020/01/04 12:44:31;;;;;;;18;4.2;;;;;;;5.86;70.37012;972.6552;;;;
2020/01/04 12:46:56;;;;;;;20.5;4.3;;;;;;;5.88;69.5498;972.6507;;;;
2020/01/04 12:49:22;;;;;;;16.7;4.3;;;;;;;6;68.94141;972.6284;;;;
2020/01/04 12:51:47;;;;;;;20.3;4.5;;;;;;;6.03;68.83105;972.6258;;;;
2020/01/04 12:54:12;;;;;;;16.7;4.4;;;;;;;5.92;69.3584;972.6891;;;;
2020/01/04 12:58:13;;;;;;;21.8;4.4;;;;;;;5.93;69.0459;972.587;;;;
2020/01/04 13:00:38;;;;;;;17.9;4;;;;;;;5.95;69.01465;972.5814;;;;
2020/01/04 13:03:03;;;;;;;14.8;4.4;;;;;;;5.94;68.76953;972.6091;;;;
2020/01/04 13:05:28;;;;;;;17.2;4.6;;;;;;;6.05;68.77637;972.6152;;;;
2020/01/04 13:07:53;;;;;;;18.4;4;;;;;;;5.83;68.625;972.5275;;;;
2020/01/04 13:10:18;;;;;;;19.8;4.4;;;;;;;5.85;68.4668;972.4366;;;;
2020/01/04 13:12:43;;;;;;;18.7;5.1;;;;;;;6;68.83887;972.4607;;;;
2020/01/04 13:15:08;;;;;;;17.2;4.7;;;;;;;6.04;69.29785;972.6412;;;;
2020/01/04 13:17:34;;;;;;;17;4;;;;;;;5.98;68.88281;972.7062;;;;
2020/01/04 13:19:59;;;;;;;15.4;4.2;;;;;;;5.93;68.60547;972.8697;;;;
2020/01/04 13:22:24;;;;;;;14.7;3.8;;;;;;;5.91;68.17578;972.8045;;;;
2020/01/04 13:24:49;;;;;;;15.6;3.7;;;;;;;5.88;68.2041;972.7855;;;;
2020/01/04 13:27:14;;;;;;;16.9;3.9;;;;;;;5.93;68.37402;972.8293;;;;
2020/01/04 13:29:39;;;;;;;17.5;4.1;;;;;;;5.8;68.59668;972.7772;;;;
2020/01/04 13:32:04;;;;;;;17;4.1;;;;;;;5.81;69.30566;972.81;;;;
2020/01/04 13:34:29;;;;;;;16.3;4.1;;;;;;;5.75;68.89063;972.8077;;;;
2020/01/04 13:36:54;;;;;;;17.7;4;;;;;;;5.74;68.37891;972.9031;;;;
2020/01/04 13:39:19;;;;;;;13.5;4.4;;;;;;;5.86;68.29492;972.8448;;;;
2020/01/04 13:41:44;;;;;;;12.9;3.6;;;;;;;5.76;67.52441;972.7275;;;;
2020/01/04 13:44:09;;;;;;;16.9;4;;;;;;;5.81;67.70605;972.6381;;;;
2020/01/04 13:46:34;;;;;;;16.5;3.9;;;;;;;5.75;67.8125;972.6139;;;;
2020/01/04 13:48:59;;;;;;;14.3;3.7;;;;;;;5.88;67.52051;972.6401;;;;
2020/01/04 13:51:25;;;;;;;20.2;4.2;;;;;;;5.89;68.20605;972.6916;;;;
2020/01/04 13:53:50;;;;;;;14.7;3.8;;;;;;;5.91;67.87207;972.6311;;;;
2020/01/04 13:56:19;;;;;;;16.5;3.9;;;;;;;5.87;67.39063;972.563;;;;
2020/01/04 13:58:40;;;;;;;15.9;3.6;;;;;;;5.78;67.2041;972.4595;;;;
2020/01/04 14:01:05;;;;;;;18.6;6.2;;;;;;;5.82;68.02051;972.3872;;;;
2020/01/04 14:03:30;;;;;;;14.8;5.6;;;;;;;5.72;68.9541;972.4285;;;;
2020/01/04 14:05:55;;;;;;;18.5;4.2;;;;;;;5.73;68.48242;972.4095;;;;
2020/01/04 14:08:20;;;;;;;17.2;5.7;;;;;;;5.77;68.57031;972.4009;;;;
2020/01/04 14:10:48;;;;;;;17.4;4.2;;;;;;;5.73;68.56348;972.3901;;;;
2020/01/04 14:13:10;;;;;;;14.2;3.9;;;;;;;5.76;69.18262;972.3979;;;;
2020/01/04 14:15:35;;;;;;;15.7;4.5;;;;;;;5.71;68.92969;972.3052;;;;
2020/01/04 14:18:00;;;;;;;17.1;4.5;;;;;;;5.78;68.80371;972.3206;;;;
2020/01/04 14:20:25;;;;;;;14.5;3.9;;;;;;;5.72;69.08203;972.4244;;;;